createdAt,value
2018-02-06T00:00:31.394Z,89.09
2018-02-06T00:02:57.151Z,88.92
2018-02-06T00:05:22.939Z,89.61
2018-02-06T00:07:48.696Z,89.85
2018-02-06T00:10:14.503Z,90.09
2018-02-06T00:12:40.240Z,90.34
2018-02-06T00:15:06.000Z,90.39
2018-02-06T00:17:31.771Z,90.46
2018-02-06T00:19:57.531Z,90.40
2018-02-06T00:22:35.830Z,90.39
2018-02-06T00:25:01.599Z,90.16
2018-02-06T00:27:27.366Z,89.59
2018-02-06T00:29:53.138Z,89.95
2018-02-06T00:32:18.909Z,88.93
2018-02-06T00:34:44.668Z,89.40
2018-02-06T00:37:10.446Z,90.53
2018-02-06T00:39:36.194Z,89.31
2018-02-06T00:42:01.970Z,89.54
2018-02-06T00:44:27.739Z,89.24
2018-02-06T00:46:53.494Z,88.91
2018-02-06T00:49:19.263Z,90.92
2018-02-06T00:51:45.023Z,90.91
2018-02-06T00:54:10.790Z,91.00
2018-02-06T00:56:36.551Z,90.18
2018-02-06T00:59:02.318Z,89.26
2018-02-06T01:01:28.062Z,90.46
2018-02-06T01:03:53.847Z,91.02
2018-02-06T01:06:19.600Z,91.43
2018-02-06T01:08:45.384Z,91.41
2018-02-06T01:11:11.140Z,92.24
2018-02-06T01:13:36.906Z,92.22
2018-02-06T01:16:02.723Z,92.72
2018-02-06T01:18:28.447Z,92.70
2018-02-06T01:20:54.215Z,92.19
2018-02-06T01:23:19.975Z,91.72
2018-02-06T01:25:45.742Z,92.40
2018-02-06T01:28:11.514Z,92.00
2018-02-06T01:30:37.270Z,91.76
2018-02-06T01:33:03.039Z,91.33
2018-02-06T01:35:28.835Z,90.78
2018-02-06T01:37:54.601Z,91.18
2018-02-06T01:40:20.358Z,90.76
2018-02-06T01:42:46.118Z,91.52
2018-02-06T01:45:11.890Z,91.71
2018-02-06T01:47:37.639Z,91.88
2018-02-06T01:50:03.405Z,92.27
2018-02-06T01:52:29.166Z,92.94
2018-02-06T01:54:54.931Z,92.59
2018-02-06T01:57:20.682Z,92.08
2018-02-06T01:59:46.451Z,93.01
2018-02-06T02:02:12.191Z,92.89
2018-02-06T02:04:37.957Z,93.13
2018-02-06T02:07:03.722Z,93.41
2018-02-06T02:09:29.486Z,92.25
2018-02-06T02:11:55.239Z,91.98
2018-02-06T02:14:21.011Z,91.72
2018-02-06T02:16:46.767Z,92.16
2018-02-06T02:19:12.885Z,92.20
2018-02-06T02:21:38.667Z,89.46
2018-02-06T02:24:04.432Z,89.35
2018-02-06T02:26:30.210Z,91.74
2018-02-06T02:28:55.954Z,91.59
2018-02-06T02:31:21.736Z,91.16
2018-02-06T02:33:47.482Z,90.80
2018-02-06T02:36:13.266Z,90.85
2018-02-06T02:38:39.028Z,90.06
2018-02-06T02:41:04.795Z,90.50
2018-02-06T04:40:04.067Z,91.45
2018-02-06T04:42:29.806Z,91.78
2018-02-06T04:44:55.566Z,91.68
2018-02-06T04:47:21.322Z,91.23
2018-02-06T04:49:47.111Z,89.48
2018-02-06T04:52:12.878Z,89.96
2018-02-06T04:54:38.630Z,90.77
2018-02-06T04:57:04.374Z,90.05
2018-02-06T04:59:30.133Z,89.40
2018-02-06T05:01:55.886Z,90.38
2018-02-06T05:04:21.641Z,90.87
2018-02-06T05:06:47.454Z,90.55
2018-02-06T05:09:13.234Z,90.38
2018-02-06T05:11:38.976Z,90.44
2018-02-06T05:14:04.734Z,90.51
2018-02-06T05:16:30.467Z,90.23
2018-02-06T05:18:56.229Z,90.35
2018-02-06T05:21:21.994Z,90.43
2018-02-06T05:23:47.745Z,90.85
2018-02-06T05:26:13.502Z,90.76
2018-02-06T05:28:39.250Z,90.34
2018-02-06T05:31:05.007Z,90.14
2018-02-06T05:33:30.756Z,90.18
2018-02-06T05:35:56.522Z,90.33
2018-02-06T05:38:22.263Z,89.99
2018-02-06T05:40:48.026Z,90.18
2018-02-06T05:43:13.786Z,90.05
2018-02-06T05:45:39.582Z,90.00
2018-02-06T05:48:05.277Z,91.02
2018-02-06T05:50:31.018Z,90.83
2018-02-06T05:52:56.759Z,90.42
2018-02-06T05:55:22.507Z,91.84
2018-02-06T05:57:48.243Z,91.74
2018-02-06T06:00:13.998Z,91.44
2018-02-06T06:02:39.739Z,92.29
2018-02-06T06:05:05.506Z,92.35
2018-02-06T06:07:31.270Z,92.08
2018-02-06T06:09:57.006Z,92.08
2018-02-06T06:12:22.767Z,91.01
2018-02-06T06:14:48.515Z,90.84
2018-02-06T06:17:14.258Z,91.60
2018-02-06T06:19:39.991Z,92.51
2018-02-06T06:22:05.750Z,92.85
2018-02-06T06:24:31.491Z,92.56
2018-02-06T06:26:57.252Z,92.21
2018-02-06T06:29:22.991Z,92.23
2018-02-06T06:31:48.750Z,91.37
2018-02-06T06:34:14.483Z,91.52
2018-02-06T06:36:40.242Z,91.23
2018-02-06T06:39:05.978Z,90.91
2018-02-06T06:41:31.730Z,90.57
2018-02-06T06:43:57.470Z,90.90
2018-02-06T06:46:23.236Z,91.28
2018-02-06T06:48:48.982Z,92.69
2018-02-06T06:51:14.735Z,91.68
2018-02-06T06:53:40.507Z,91.86
2018-02-06T06:56:06.255Z,90.85
2018-02-06T06:58:32.014Z,91.97
2018-02-06T07:00:57.774Z,92.13
2018-02-06T07:03:23.528Z,91.79
2018-02-06T07:05:49.276Z,92.52
2018-02-06T07:08:15.027Z,92.53
2018-02-06T07:10:40.778Z,91.68
2018-02-06T07:13:06.538Z,91.14
2018-02-06T07:15:32.284Z,90.63
2018-02-06T07:17:58.042Z,90.80
2018-02-06T07:20:24.739Z,90.96
2018-02-06T07:22:50.503Z,92.00
2018-02-06T07:25:16.250Z,92.37
2018-02-06T07:27:42.019Z,92.40
2018-02-06T07:30:07.764Z,92.57
2018-02-06T07:32:33.515Z,92.53
2018-02-06T07:34:59.279Z,92.77
2018-02-06T07:37:25.033Z,92.80
2018-02-06T07:39:50.790Z,92.67
2018-02-06T07:42:16.531Z,92.68
2018-02-06T07:44:42.309Z,92.78
2018-02-06T07:47:08.051Z,92.77
2018-02-06T07:49:33.811Z,92.39
2018-02-06T07:51:59.567Z,92.44
2018-02-06T07:54:25.323Z,92.91
2018-02-06T07:56:51.066Z,92.79
2018-02-06T07:59:16.831Z,92.38
2018-02-06T08:01:42.575Z,92.47
2018-02-06T08:04:08.331Z,92.67
2018-02-06T08:06:34.080Z,92.58
2018-02-06T08:08:59.838Z,92.62
2018-02-06T08:11:25.578Z,92.73
2018-02-06T08:13:51.334Z,92.37
2018-02-06T08:16:17.087Z,92.39
2018-02-06T08:18:42.835Z,92.29
2018-02-06T08:21:08.595Z,92.41
2018-02-06T08:23:34.404Z,92.26
2018-02-06T08:26:00.188Z,92.09
2018-02-06T08:28:32.840Z,92.00
2018-02-06T08:30:58.599Z,91.90
2018-02-06T08:33:24.346Z,91.54
2018-02-06T08:35:50.102Z,91.63
2018-02-06T08:38:15.855Z,91.91
2018-02-06T08:40:41.622Z,91.74
2018-02-06T08:43:07.367Z,91.45
2018-02-06T08:45:33.110Z,91.79
2018-02-06T08:47:58.856Z,91.42
2018-02-06T08:50:24.621Z,91.15
2018-02-06T08:52:50.368Z,91.48
2018-02-06T08:55:16.126Z,91.67
2018-02-06T08:57:41.862Z,91.28
2018-02-06T09:00:07.676Z,91.60
2018-02-06T09:02:33.420Z,91.37
2018-02-06T09:04:59.186Z,91.42
2018-02-06T09:07:24.927Z,91.01
2018-02-06T09:09:50.687Z,91.26
2018-02-06T09:12:16.430Z,91.42
2018-02-06T09:14:42.183Z,91.17
2018-02-06T09:17:07.942Z,90.58
2018-02-06T09:19:33.675Z,90.03
2018-02-06T09:21:59.725Z,89.88
2018-02-06T09:24:25.510Z,89.72
2018-02-06T09:26:51.292Z,88.69
2018-02-06T09:29:17.111Z,88.59
2018-02-06T09:31:42.862Z,89.27
2018-02-06T09:34:08.598Z,88.10
2018-02-06T09:36:34.362Z,87.89
2018-02-06T09:39:00.103Z,87.64
2018-02-06T09:41:25.859Z,87.45
2018-02-06T09:43:51.610Z,86.83
2018-02-06T09:46:17.368Z,87.10
2018-02-06T09:48:43.108Z,86.48
2018-02-06T09:51:08.854Z,86.33
2018-02-06T09:53:34.602Z,85.83
2018-02-06T09:56:00.355Z,85.33
2018-02-06T09:58:26.116Z,84.69
2018-02-06T10:00:51.871Z,85.07
2018-02-06T10:03:17.627Z,85.64
2018-02-06T10:05:43.377Z,82.40
2018-02-06T10:08:09.129Z,83.97
2018-02-06T10:10:34.870Z,84.01
2018-02-06T10:13:00.630Z,82.36
2018-02-06T10:15:26.379Z,81.86
2018-02-06T10:17:52.138Z,81.83
2018-02-06T10:20:17.882Z,80.94
2018-02-06T10:22:43.641Z,78.96
2018-02-06T10:25:09.393Z,82.25
2018-02-06T10:27:35.161Z,80.40
2018-02-06T10:30:00.904Z,77.89
2018-02-06T10:32:26.664Z,77.08
2018-02-06T10:34:52.414Z,75.92
2018-02-06T10:37:18.178Z,74.34
2018-02-06T10:39:43.926Z,74.54
2018-02-06T10:42:09.667Z,73.71
2018-02-06T10:44:35.422Z,71.70
2018-02-06T10:47:01.159Z,72.73
2018-02-06T10:49:26.924Z,70.69
2018-02-06T10:51:52.670Z,71.89
2018-02-06T10:54:18.536Z,69.13
2018-02-06T10:56:44.278Z,69.93
2018-02-06T10:59:10.134Z,67.64
2018-02-06T11:01:35.894Z,67.19
2018-02-06T11:04:01.703Z,66.20
2018-02-06T11:06:27.448Z,64.02
2018-02-06T11:08:53.213Z,67.10
2018-02-06T11:11:18.956Z,65.05
2018-02-06T11:13:44.710Z,64.03
2018-02-06T11:16:10.468Z,63.46
2018-02-06T11:18:36.217Z,64.79
2018-02-06T11:21:01.963Z,63.40
2018-02-06T11:23:27.718Z,62.68
2018-02-06T11:25:53.478Z,64.19
2018-02-06T11:28:19.225Z,63.39
2018-02-06T11:30:44.984Z,64.79
2018-02-06T11:33:10.726Z,61.80
2018-02-06T11:35:36.466Z,61.95
2018-02-06T11:38:02.217Z,61.71
2018-02-06T11:40:27.991Z,61.92
2018-02-06T11:42:53.734Z,61.96
2018-02-06T11:45:19.547Z,61.66
2018-02-06T11:47:45.283Z,61.23
2018-02-06T11:50:11.055Z,62.14
2018-02-06T11:52:36.825Z,62.91
2018-02-06T11:55:02.590Z,63.05
2018-02-06T11:57:28.337Z,60.96
2018-02-06T11:59:54.087Z,62.42
2018-02-06T12:02:19.826Z,62.21
2018-02-06T12:04:45.555Z,62.13
2018-02-06T12:07:11.299Z,61.28
2018-02-06T12:09:37.042Z,58.63
2018-02-06T12:12:02.789Z,58.48
2018-02-06T12:14:28.548Z,60.15
2018-02-06T12:16:54.345Z,60.00
2018-02-06T12:19:20.054Z,59.24
2018-02-06T12:21:45.814Z,59.41
2018-02-06T12:24:11.554Z,58.59
2018-02-06T12:26:37.319Z,58.21
2018-02-06T12:29:03.046Z,56.13
2018-02-06T12:31:28.806Z,57.71
2018-02-06T12:33:54.555Z,56.76
2018-02-06T12:36:20.324Z,57.13
2018-02-06T12:38:46.071Z,56.91
2018-02-06T12:41:11.834Z,54.21
2018-02-06T12:43:37.584Z,54.71
2018-02-06T12:46:03.338Z,55.59
2018-02-06T12:48:29.094Z,54.88
2018-02-06T12:50:54.822Z,57.11
2018-02-06T12:53:20.575Z,54.47
2018-02-06T12:55:46.327Z,55.71
2018-02-06T12:58:12.096Z,57.03
2018-02-06T13:00:37.842Z,54.93
2018-02-06T13:03:03.595Z,53.83
2018-02-06T13:05:30.139Z,53.86
2018-02-06T13:07:55.894Z,53.61
2018-02-06T13:10:21.640Z,54.94
2018-02-06T13:12:47.402Z,58.78
2018-02-06T13:15:13.155Z,54.47
2018-02-06T13:17:38.906Z,55.82
2018-02-06T13:20:04.662Z,54.66
2018-02-06T13:22:30.390Z,56.49
2018-02-06T13:24:56.158Z,57.75
2018-02-06T13:27:21.897Z,57.87
2018-02-06T13:29:47.639Z,58.47
2018-02-06T13:32:13.376Z,59.48
2018-02-06T13:34:39.117Z,59.79
2018-02-06T13:37:04.862Z,59.73
2018-02-06T13:39:30.627Z,58.61
2018-02-06T13:41:56.376Z,58.96
2018-02-06T13:44:22.141Z,61.10
2018-02-06T13:46:47.885Z,60.28
2018-02-06T13:49:13.650Z,61.04
2018-02-06T13:51:39.402Z,60.25
2018-02-06T13:54:05.195Z,59.81
2018-02-06T13:56:30.942Z,60.16
2018-02-06T13:58:56.692Z,60.72
2018-02-06T14:01:22.447Z,60.96
2018-02-06T14:03:48.217Z,61.66
2018-02-06T14:06:13.966Z,61.13
2018-02-06T14:08:39.730Z,62.17
2018-02-06T14:11:05.499Z,62.94
2018-02-06T14:13:31.251Z,60.91
2018-02-06T14:15:57.031Z,61.73
2018-02-06T14:18:22.783Z,63.13
2018-02-06T14:20:48.570Z,60.60
2018-02-06T14:23:14.311Z,58.64
2018-02-06T14:25:40.082Z,58.91
2018-02-06T14:28:05.831Z,61.02
2018-02-06T14:30:31.596Z,60.58
2018-02-06T14:32:57.333Z,59.42
2018-02-06T14:35:23.246Z,59.87
2018-02-06T14:37:49.794Z,60.21
2018-02-06T14:40:15.546Z,61.10
2018-02-06T14:42:41.353Z,60.68
2018-02-06T14:45:07.110Z,61.16
2018-02-06T14:47:32.874Z,60.91
2018-02-06T14:49:58.618Z,60.50
2018-02-06T14:52:24.383Z,60.32
2018-02-06T14:54:50.127Z,60.40
2018-02-06T14:57:15.942Z,59.57
2018-02-06T14:59:41.683Z,61.06
2018-02-06T15:02:07.442Z,60.43
2018-02-06T15:04:33.181Z,60.17
2018-02-06T15:06:58.945Z,60.59
2018-02-06T15:09:24.695Z,60.38
2018-02-06T15:11:50.442Z,60.43
2018-02-06T15:14:16.193Z,60.76
2018-02-06T15:16:41.948Z,61.84
2018-02-06T15:19:07.706Z,62.28
2018-02-06T15:21:33.460Z,63.68
2018-02-06T15:23:59.206Z,64.67
2018-02-06T15:26:24.954Z,65.42
2018-02-06T15:28:50.707Z,65.61
2018-02-06T15:31:16.460Z,66.31
2018-02-06T15:33:42.210Z,66.67
2018-02-06T15:36:07.963Z,66.95
2018-02-06T15:38:33.736Z,67.27
2018-02-06T15:40:59.478Z,67.11
2018-02-06T15:43:25.234Z,67.03
2018-02-06T15:45:51.003Z,66.19
2018-02-06T15:48:16.762Z,68.73
2018-02-06T15:50:42.514Z,65.47
2018-02-06T15:53:08.289Z,66.17
2018-02-06T15:55:34.048Z,66.72
2018-02-06T15:57:59.810Z,65.95
2018-02-06T16:00:33.701Z,67.45
2018-02-06T16:02:59.475Z,65.83
2018-02-06T16:05:25.215Z,65.36
2018-02-06T16:07:50.971Z,66.14
2018-02-06T16:10:16.750Z,67.13
2018-02-06T16:12:42.494Z,68.61
2018-02-06T16:15:08.258Z,69.86
2018-02-06T16:17:34.011Z,70.26
2018-02-06T16:19:59.784Z,69.00
2018-02-06T16:22:25.540Z,70.41
2018-02-06T16:24:51.311Z,70.92
2018-02-06T16:27:17.066Z,72.52
2018-02-06T16:29:42.830Z,69.63
2018-02-06T16:32:08.598Z,71.41
2018-02-06T16:34:34.362Z,71.44
2018-02-06T16:37:00.118Z,72.36
2018-02-06T16:39:25.875Z,71.99
2018-02-06T16:41:51.631Z,73.83
2018-02-06T16:44:17.394Z,72.16
2018-02-06T16:46:43.151Z,73.74
2018-02-06T16:49:08.910Z,73.28
2018-02-06T16:51:34.696Z,74.34
2018-02-06T16:54:00.450Z,74.45
2018-02-06T16:56:26.215Z,74.02
2018-02-06T16:58:51.973Z,74.51
2018-02-06T17:01:17.742Z,74.50
2018-02-06T17:03:43.482Z,73.62
2018-02-06T17:06:09.246Z,75.40
2018-02-06T17:08:34.999Z,75.36
2018-02-06T17:11:00.767Z,75.83
2018-02-06T17:13:26.514Z,75.99
2018-02-06T17:15:52.275Z,76.08
2018-02-06T17:18:18.024Z,76.33
2018-02-06T17:20:43.789Z,76.95
2018-02-06T17:23:09.536Z,75.65
2018-02-06T17:25:35.303Z,76.34
2018-02-06T17:28:01.054Z,76.48
2018-02-06T17:30:26.814Z,77.98
2018-02-06T17:32:52.554Z,77.47
2018-02-06T17:35:18.318Z,77.86
2018-02-06T17:37:44.079Z,78.57
2018-02-06T17:40:16.879Z,79.09
2018-02-06T17:42:42.640Z,79.25
2018-02-06T17:45:08.387Z,78.09
2018-02-06T17:47:34.159Z,79.00
2018-02-06T17:49:59.909Z,79.69
2018-02-06T17:52:25.666Z,79.18
2018-02-06T17:54:51.416Z,79.80
2018-02-06T17:57:17.183Z,80.52
2018-02-06T17:59:42.930Z,80.74
2018-02-06T18:02:08.711Z,80.77
2018-02-06T18:04:34.462Z,79.84
2018-02-06T18:07:00.210Z,80.75
2018-02-06T18:09:25.958Z,80.09
2018-02-06T18:11:51.708Z,80.27
2018-02-06T18:14:17.466Z,81.42
2018-02-06T18:16:43.206Z,80.79
2018-02-06T18:19:08.975Z,81.59
2018-02-06T18:21:34.721Z,81.33
2018-02-06T18:24:00.503Z,81.43
2018-02-06T18:26:26.259Z,81.44
2018-02-06T18:28:52.015Z,81.04
2018-02-06T18:31:17.827Z,82.03
2018-02-06T18:33:43.539Z,82.57
2018-02-06T18:36:09.494Z,82.35
2018-02-06T18:38:35.449Z,82.74
2018-02-06T18:41:01.206Z,82.34
2018-02-06T18:43:26.972Z,82.31
2018-02-06T18:45:52.723Z,82.62
2018-02-06T18:48:18.495Z,82.58
2018-02-06T18:50:44.227Z,81.81
2018-02-06T18:53:09.987Z,81.96
2018-02-06T18:55:35.755Z,82.62
2018-02-06T18:58:01.499Z,83.40
2018-02-06T19:00:27.255Z,83.36
2018-02-06T19:02:53.003Z,82.82
2018-02-06T19:05:18.757Z,82.96
2018-02-06T19:07:44.509Z,82.73
2018-02-06T19:10:10.268Z,83.21
2018-02-06T19:12:36.039Z,82.99
2018-02-06T19:15:01.840Z,82.19
2018-02-06T19:17:27.558Z,82.77
2018-02-06T19:19:53.318Z,81.99
2018-02-06T19:22:19.075Z,82.91
2018-02-06T19:24:44.818Z,83.37
2018-02-06T19:27:10.573Z,84.36
2018-02-06T19:29:36.315Z,83.02
2018-02-06T19:32:02.068Z,83.75
2018-02-06T19:34:27.826Z,84.02
2018-02-06T19:36:53.574Z,83.36
2018-02-06T19:39:19.350Z,83.18
2018-02-06T19:41:45.110Z,83.91
2018-02-06T19:44:10.872Z,84.85
2018-02-06T19:46:36.637Z,84.22
2018-02-06T19:49:02.394Z,83.82
2018-02-06T19:51:28.158Z,83.18
2018-02-06T19:53:53.921Z,83.05
2018-02-06T19:56:19.689Z,83.90
2018-02-06T19:58:45.439Z,83.54
2018-02-06T20:01:11.198Z,84.68
2018-02-06T20:03:36.970Z,83.77
2018-02-06T20:06:02.734Z,85.13
2018-02-06T20:08:28.490Z,83.68
2018-02-06T20:10:54.260Z,84.58
2018-02-06T20:13:20.003Z,85.33
2018-02-06T20:15:45.760Z,83.33
2018-02-06T20:18:11.512Z,85.24
2018-02-06T20:20:37.280Z,85.50
2018-02-06T20:23:03.043Z,83.76
2018-02-06T20:25:28.798Z,84.68
2018-02-06T20:27:54.567Z,84.42
2018-02-06T20:30:20.321Z,84.69
2018-02-06T20:32:46.087Z,85.21
2018-02-06T20:35:11.841Z,86.42
2018-02-06T20:37:37.607Z,85.78
2018-02-06T20:40:03.358Z,86.59
2018-02-06T20:42:29.114Z,85.55
2018-02-06T20:44:54.875Z,85.01
2018-02-06T20:47:20.627Z,86.10
2018-02-06T20:49:46.387Z,86.44
2018-02-06T20:52:12.138Z,84.83
2018-02-06T20:54:37.919Z,86.26
2018-02-06T20:57:03.793Z,86.30
2018-02-06T20:59:29.541Z,84.64
2018-02-06T21:01:55.311Z,86.56
2018-02-06T21:04:21.080Z,87.18
2018-02-06T21:06:46.843Z,86.44
2018-02-06T21:09:12.583Z,85.80
2018-02-06T21:11:38.330Z,86.46
2018-02-06T21:14:04.079Z,87.30
2018-02-06T21:16:31.047Z,86.75
2018-02-06T21:18:56.786Z,86.74
2018-02-06T21:21:23.359Z,87.12
2018-02-06T21:23:49.207Z,84.39
2018-02-06T21:26:15.195Z,85.57
2018-02-06T21:28:40.968Z,86.75
2018-02-06T21:31:06.710Z,86.03
2018-02-06T21:33:32.695Z,86.62
2018-02-06T21:35:58.456Z,86.59
2018-02-06T21:38:24.210Z,85.70
2018-02-06T21:40:49.974Z,85.21
2018-02-06T21:43:15.767Z,87.16
2018-02-06T21:45:41.508Z,86.34
2018-02-06T21:48:07.270Z,85.27
2018-02-06T21:50:33.031Z,87.26
2018-02-06T21:52:58.799Z,86.54
2018-02-06T21:55:24.546Z,86.24
2018-02-06T21:57:50.573Z,88.45
2018-02-06T22:00:16.334Z,89.14
2018-02-06T22:02:42.075Z,89.23
2018-02-06T22:05:07.834Z,89.26
2018-02-06T22:07:33.570Z,88.26
2018-02-06T22:09:59.323Z,86.34
2018-02-06T22:12:25.075Z,87.58
2018-02-06T22:14:50.969Z,86.79
2018-02-06T22:17:16.739Z,88.68
2018-02-06T22:19:42.500Z,86.28
2018-02-06T22:22:09.247Z,85.89
2018-02-06T22:24:35.042Z,87.19
2018-02-06T22:27:00.779Z,86.01
2018-02-06T22:29:26.551Z,85.78
2018-02-06T22:31:52.297Z,84.84
2018-02-06T22:34:18.056Z,84.60
2018-02-06T22:36:43.978Z,87.62
2018-02-06T22:39:11.063Z,84.99
2018-02-06T22:41:36.897Z,86.56
2018-02-06T22:44:03.410Z,87.22
2018-02-06T22:46:29.251Z,88.76
2018-02-06T22:48:56.966Z,89.23
2018-02-06T22:51:23.389Z,89.23
2018-02-06T22:53:49.610Z,89.70
2018-02-06T22:56:16.227Z,89.58
2018-02-06T22:58:42.006Z,88.25
2018-02-06T23:01:07.762Z,85.77
2018-02-06T23:03:33.515Z,85.54
2018-02-06T23:05:59.286Z,85.86
2018-02-06T23:08:25.046Z,85.98
2018-02-06T23:10:50.798Z,87.85
2018-02-06T23:13:16.557Z,87.48
2018-02-06T23:15:42.306Z,86.96
2018-02-06T23:18:08.054Z,87.16
2018-02-06T23:20:33.807Z,87.02
2018-02-06T23:22:59.572Z,85.93
2018-02-06T23:25:25.327Z,84.37
2018-02-06T23:27:51.081Z,85.45
2018-02-06T23:30:16.835Z,86.12
2018-02-06T23:32:42.591Z,85.72
2018-02-06T23:35:08.346Z,85.82
2018-02-06T23:37:34.122Z,86.82
2018-02-06T23:39:59.867Z,87.00
2018-02-06T23:42:25.629Z,84.83
2018-02-06T23:44:51.386Z,85.08
2018-02-06T23:47:17.149Z,86.23
2018-02-06T23:49:42.878Z,86.66
2018-02-06T23:52:08.635Z,86.94
2018-02-06T23:54:34.382Z,87.84
2018-02-06T23:57:00.152Z,87.96
2018-02-06T23:59:25.919Z,87.32
